Time;durP1;ratioP1;P1;durP2;ratioP2;P2;SDS_P1;SDS_P2;PMS_P1;PMS_P2;Temp;Humidity;BMP_temperature;BMP_pressure;BME280_temperature;BME280_humidity;BME280_pressure;Samples;Min_cycle;Max_cycle;Signal;HPM_P1;HPM_P2
2023/05/26 00:00:12;;;;;;;24.95;6.25;;;8.30;99.90;;;;;;4968985;28;20167;-76
2023/05/26 00:02:39;;;;;;;24.95;7.07;;;8.20;99.90;;;;;;4998940;28;20045;-76
2023/05/26 00:05:09;;;;;;;26.33;7.05;;;8.20;99.90;;;;;;4986221;28;20044;-76
2023/05/26 00:07:39;;;;;;;22.83;6.95;;;8.10;99.90;;;;;;4984256;28;20072;-76
2023/05/26 00:10:09;;;;;;;26.25;6.55;;;8.10;99.90;;;;;;5019002;28;21383;-76
2023/05/26 00:12:37;;;;;;;20.40;6.45;;;8.10;99.90;;;;;;5016254;28;20041;-76
2023/05/26 00:15:04;;;;;;;27.38;7.50;;;8.10;99.90;;;;;;5018036;28;20052;-78
2023/05/26 00:17:35;;;;;;;23.83;7.10;;;8.20;99.90;;;;;;4998686;28;20049;-77
2023/05/26 00:20:10;;;;;;;21.92;6.20;;;8.10;99.90;;;;;;4974504;28;20056;-77
2023/05/26 00:22:40;;;;;;;25.90;6.93;;;8.20;99.90;;;;;;4996495;28;20227;-78
2023/05/26 00:25:06;;;;;;;20.10;6.15;;;8.10;99.90;;;;;;4995839;28;20052;-78
2023/05/26 00:27:32;;;;;;;21.42;6.60;;;8.10;99.90;;;;;;5011157;28;20052;-77
2023/05/26 00:29:58;;;;;;;20.75;6.25;;;8.10;99.90;;;;;;5027689;28;20056;-77
2023/05/26 00:32:29;;;;;;;24.38;7.18;;;8.10;99.90;;;;;;4993833;28;20041;-78
2023/05/26 00:34:55;;;;;;;27.13;7.47;;;8.10;99.90;;;;;;4977186;28;20041;-77
2023/05/26 00:37:22;;;;;;;19.15;6.15;;;8.10;99.90;;;;;;5009548;28;20052;-78
2023/05/26 00:39:48;;;;;;;22.95;7.10;;;8.10;99.90;;;;;;4998067;28;20061;-77
2023/05/26 00:42:14;;;;;;;16.95;5.78;;;8.10;99.90;;;;;;5020297;28;20041;-78
2023/05/26 00:44:40;;;;;;;21.63;5.90;;;8.10;99.90;;;;;;5008364;28;20040;-77
2023/05/26 00:47:06;;;;;;;23.27;6.40;;;8.10;99.90;;;;;;4990412;28;20048;-77
2023/05/26 00:49:35;;;;;;;23.70;6.78;;;8.00;99.90;;;;;;5024149;28;20044;-78
2023/05/26 00:52:01;;;;;;;28.20;6.80;;;8.00;99.90;;;;;;5025792;28;20056;-78
2023/05/26 00:54:30;;;;;;;21.83;6.18;;;7.90;99.90;;;;;;5025257;28;20045;-78
2023/05/26 00:56:58;;;;;;;23.50;5.93;;;7.90;99.90;;;;;;5009054;28;20421;-77
2023/05/26 00:59:29;;;;;;;21.20;6.40;;;7.90;99.90;;;;;;4993825;28;20105;-77
2023/05/26 01:01:55;;;;;;;25.48;6.45;;;7.90;99.90;;;;;;5010940;28;20098;-77
2023/05/26 01:04:22;;;;;;;23.88;6.53;;;7.80;99.90;;;;;;5006616;28;20048;-77
2023/05/26 01:06:50;;;;;;;19.92;5.57;;;7.90;99.90;;;;;;5023912;28;20097;-78
2023/05/26 01:09:20;;;;;;;25.60;6.68;;;7.90;99.90;;;;;;5024526;28;20047;-77
2023/05/26 01:11:59;;;;;;;26.50;7.03;;;7.80;99.90;;;;;;4994001;28;20135;-77
2023/05/26 01:14:34;;;;;;;21.48;6.07;;;7.80;99.90;;;;;;5024742;28;20051;-77
2023/05/26 01:17:05;;;;;;;22.25;6.85;;;7.70;99.90;;;;;;5008285;28;20063;-77
2023/05/26 01:20:10;;;;;;;26.98;6.85;;;7.60;99.90;;;;;;5011219;28;20080;-77
2023/05/26 01:23:02;;;;;;;23.88;6.78;;;7.70;99.90;;;;;;5008158;28;21791;-78
2023/05/26 01:25:44;;;;;;;26.83;7.57;;;7.70;99.90;;;;;;5005950;28;20078;-77
2023/05/26 01:28:22;;;;;;;25.58;6.88;;;7.60;99.90;;;;;;5019716;28;20060;-77
2023/05/26 01:30:49;;;;;;;16.73;5.45;;;7.60;99.90;;;;;;4981319;28;20051;-77
2023/05/26 01:33:15;;;;;;;20.58;6.53;;;7.60;99.90;;;;;;5015208;28;20075;-76
2023/05/26 01:35:42;;;;;;;23.38;7.05;;;7.50;99.90;;;;;;5034266;28;20048;-76
2023/05/26 01:38:08;;;;;;;16.92;5.60;;;7.50;99.90;;;;;;5018271;28;20126;-76
2023/05/26 01:40:35;;;;;;;21.15;5.93;;;7.50;99.90;;;;;;5018121;28;20044;-77
2023/05/26 01:43:11;;;;;;;19.70;5.63;;;7.40;99.90;;;;;;5049371;28;20114;-76
2023/05/26 01:46:07;;;;;;;22.05;6.70;;;7.30;99.90;;;;;;5052216;28;20123;-75
2023/05/26 01:48:34;;;;;;;17.50;5.47;;;7.20;99.90;;;;;;5049823;28;20076;-76
2023/05/26 01:51:04;;;;;;;20.85;5.82;;;7.10;99.90;;;;;;5046926;28;20055;-76
2023/05/26 01:53:33;;;;;;;22.53;6.40;;;7.00;99.90;;;;;;5049104;28;20048;-77
2023/05/26 01:56:01;;;;;;;18.02;5.20;;;7.00;99.90;;;;;;5047395;28;20300;-76
2023/05/26 01:58:28;;;;;;;23.02;6.57;;;6.90;99.90;;;;;;5028327;28;20048;-76
2023/05/26 02:00:54;;;;;;;17.77;5.60;;;6.90;99.90;;;;;;5030503;28;20102;-77
2023/05/26 02:03:20;;;;;;;20.98;6.00;;;6.80;99.90;;;;;;5014004;28;20727;-77
2023/05/26 02:05:47;;;;;;;17.95;6.05;;;6.90;99.90;;;;;;5027848;28;20226;-77
2023/05/26 02:08:13;;;;;;;25.13;7.15;;;6.90;99.90;;;;;;5029845;28;20080;-77
2023/05/26 02:10:39;;;;;;;29.73;7.45;;;6.80;99.90;;;;;;5027664;28;20053;-77
2023/05/26 02:13:06;;;;;;;24.30;7.35;;;6.70;99.90;;;;;;4998502;28;20060;-77
2023/05/26 02:15:32;;;;;;;21.48;6.43;;;6.60;99.90;;;;;;5045218;28;20610;-76
2023/05/26 02:17:58;;;;;;;19.02;5.32;;;6.60;99.90;;;;;;5046005;28;20063;-75
2023/05/26 02:20:25;;;;;;;23.10;6.70;;;6.50;99.90;;;;;;5027414;28;20040;-77
2023/05/26 02:22:51;;;;;;;22.00;6.35;;;6.40;99.90;;;;;;5017674;28;20163;-77
2023/05/26 02:25:17;;;;;;;20.02;5.82;;;6.30;99.90;;;;;;5046123;28;20106;-77
2023/05/26 02:27:43;;;;;;;24.10;6.53;;;6.20;99.90;;;;;;5049236;28;20898;-77
2023/05/26 02:30:09;;;;;;;19.42;6.15;;;6.20;99.90;;;;;;5044785;28;20041;-77
2023/05/26 02:32:38;;;;;;;22.27;6.53;;;6.20;99.90;;;;;;5011801;28;20048;-77
2023/05/26 02:35:04;;;;;;;19.30;6.07;;;6.30;99.90;;;;;;5007385;28;20072;-76
2023/05/26 02:37:30;;;;;;;18.42;5.70;;;6.30;99.90;;;;;;5048728;28;20218;-77
2023/05/26 02:39:57;;;;;;;22.52;6.43;;;6.30;99.90;;;;;;5030479;28;20059;-76
2023/05/26 02:42:23;;;;;;;24.65;6.80;;;6.20;99.90;;;;;;5028907;28;20764;-77
2023/05/26 02:44:48;;;;;;;21.98;6.25;;;6.10;99.90;;;;;;5026178;28;20139;-77
2023/05/26 02:47:14;;;;;;;23.40;6.60;;;6.00;99.90;;;;;;5026682;28;20101;-76
2023/05/26 02:49:42;;;;;;;28.10;7.57;;;6.00;99.90;;;;;;5031961;28;20052;-77
2023/05/26 02:52:08;;;;;;;23.67;6.57;;;5.90;99.90;;;;;;5050454;28;20110;-77
2023/05/26 02:54:34;;;;;;;17.17;5.90;;;5.90;99.90;;;;;;5029780;28;20048;-77
2023/05/26 02:57:00;;;;;;;23.55;7.00;;;5.90;99.90;;;;;;5031355;28;20154;-77
2023/05/26 02:59:25;;;;;;;20.90;6.55;;;5.80;99.90;;;;;;5045796;28;20133;-77
2023/05/26 03:01:51;;;;;;;17.13;5.30;;;5.80;99.90;;;;;;4999997;28;20424;-77
2023/05/26 03:04:17;;;;;;;22.60;6.00;;;5.80;99.90;;;;;;5015765;28;20147;-77
2023/05/26 03:06:43;;;;;;;19.90;6.70;;;5.80;99.90;;;;;;4997067;28;20040;-77
2023/05/26 03:09:09;;;;;;;16.20;6.05;;;5.90;99.90;;;;;;5048574;28;20036;-77
2023/05/26 03:11:35;;;;;;;17.80;5.75;;;5.80;99.90;;;;;;5011466;28;20044;-77
2023/05/26 03:14:01;;;;;;;21.08;6.82;;;5.80;99.90;;;;;;5033218;28;20051;-77
2023/05/26 03:16:27;;;;;;;21.20;6.75;;;5.80;99.90;;;;;;5017172;28;20173;-78
2023/05/26 03:18:56;;;;;;;22.20;7.22;;;5.90;99.90;;;;;;5016938;28;20059;-78
2023/05/26 03:21:22;;;;;;;21.05;6.90;;;5.90;99.90;;;;;;5017958;28;20047;-76
2023/05/26 03:23:48;;;;;;;18.27;6.25;;;5.90;99.90;;;;;;5032388;28;20053;-77
2023/05/26 03:26:14;;;;;;;15.43;5.65;;;5.90;99.90;;;;;;5013309;28;20409;-76
2023/05/26 03:28:40;;;;;;;20.25;6.93;;;5.90;99.90;;;;;;5031382;28;20136;-77
2023/05/26 03:31:06;;;;;;;24.48;7.30;;;5.90;99.90;;;;;;5047505;28;20055;-77
2023/05/26 03:33:32;;;;;;;18.67;6.22;;;5.90;99.90;;;;;;5047962;28;20124;-77
2023/05/26 03:36:00;;;;;;;20.45;5.85;;;5.90;99.90;;;;;;5012470;28;20127;-77
2023/05/26 03:38:27;;;;;;;17.98;5.82;;;5.90;99.90;;;;;;5018740;28;20048;-77
2023/05/26 03:40:55;;;;;;;18.48;5.63;;;5.90;99.90;;;;;;5050333;28;20052;-77
2023/05/26 03:43:21;;;;;;;16.80;6.13;;;5.80;99.90;;;;;;5036593;28;20037;-76
2023/05/26 03:45:56;;;;;;;19.73;7.00;;;5.80;99.90;;;;;;5017086;28;20526;-76
2023/05/26 03:48:22;;;;;;;14.57;5.43;;;5.90;99.90;;;;;;5017485;28;20145;-79
2023/05/26 03:50:48;;;;;;;17.63;6.18;;;5.80;99.90;;;;;;5015869;28;20135;-77
2023/05/26 03:53:14;;;;;;;28.73;7.57;;;5.80;99.90;;;;;;5002990;28;20359;-77
2023/05/26 03:55:40;;;;;;;30.38;7.07;;;5.90;99.90;;;;;;5017899;28;21309;-77
2023/05/26 03:58:05;;;;;;;18.60;6.10;;;5.80;99.90;;;;;;5017584;28;20058;-77
2023/05/26 04:00:32;;;;;;;17.92;6.18;;;5.80;99.90;;;;;;5050846;28;20083;-77
2023/05/26 04:02:59;;;;;;;21.23;6.65;;;5.80;99.90;;;;;;5018671;28;20342;-77
2023/05/26 04:05:25;;;;;;;21.60;6.55;;;5.70;99.90;;;;;;5051861;28;20051;-77
2023/05/26 04:07:51;;;;;;;19.40;6.60;;;5.70;99.90;;;;;;5034215;28;20059;-77
2023/05/26 04:10:17;;;;;;;16.55;6.22;;;5.60;99.90;;;;;;5031366;28;20048;-77
2023/05/26 04:12:43;;;;;;;22.98;6.97;;;5.60;99.90;;;;;;5049231;28;20049;-77
2023/05/26 04:15:09;;;;;;;21.58;7.35;;;5.70;99.90;;;;;;5032581;28;20052;-77
2023/05/26 04:17:40;;;;;;;19.55;6.45;;;5.70;99.90;;;;;;5048568;28;20047;-78
2023/05/26 04:20:12;;;;;;;21.35;6.57;;;5.80;99.90;;;;;;5047215;28;20139;-78
2023/05/26 04:22:38;;;;;;;26.33;7.38;;;5.80;99.90;;;;;;5018181;28;20059;-77
2023/05/26 04:25:05;;;;;;;21.52;6.72;;;5.80;99.90;;;;;;5029956;28;20044;-78
2023/05/26 04:27:31;;;;;;;27.55;7.47;;;5.80;99.90;;;;;;5028414;28;20411;-77
2023/05/26 04:29:58;;;;;;;24.92;7.97;;;5.80;99.90;;;;;;5030471;28;20135;-78
2023/05/26 04:32:27;;;;;;;20.25;7.15;;;5.80;99.90;;;;;;5001977;28;20051;-78
2023/05/26 04:34:56;;;;;;;21.85;6.63;;;5.80;99.90;;;;;;5032334;28;20489;-78
2023/05/26 04:37:22;;;;;;;21.27;6.95;;;5.80;99.90;;;;;;5033397;28;20125;-77
2023/05/26 04:39:48;;;;;;;16.75;5.93;;;5.90;99.90;;;;;;5014481;28;20040;-77
2023/05/26 04:42:15;;;;;;;28.20;8.57;;;5.90;99.90;;;;;;5034692;28;20559;-77
2023/05/26 04:44:43;;;;;;;22.55;7.75;;;5.90;99.90;;;;;;5030564;28;20060;-77
2023/05/26 04:47:09;;;;;;;29.70;8.02;;;6.00;99.90;;;;;;5034869;28;20049;-76
2023/05/26 04:49:36;;;;;;;21.35;7.68;;;6.10;99.90;;;;;;5015831;28;20620;-76
2023/05/26 04:52:02;;;;;;;23.13;8.05;;;6.20;99.90;;;;;;5032330;28;20102;-76
2023/05/26 04:54:27;;;;;;;26.98;8.25;;;6.20;99.90;;;;;;5033188;28;20049;-76
2023/05/26 04:56:56;;;;;;;24.90;7.40;;;6.30;99.90;;;;;;5050367;28;20321;-77
2023/05/26 04:59:23;;;;;;;29.65;8.98;;;6.40;99.90;;;;;;5047056;28;20040;-77
2023/05/26 05:01:51;;;;;;;34.78;8.82;;;6.50;99.90;;;;;;5048985;28;20044;-77
2023/05/26 05:04:17;;;;;;;27.33;8.68;;;6.60;99.90;;;;;;5048610;28;20036;-77
2023/05/26 05:06:44;;;;;;;28.63;8.27;;;6.80;99.90;;;;;;5032117;28;20504;-77
2023/05/26 05:09:09;;;;;;;29.58;8.63;;;6.90;99.90;;;;;;5017124;28;20064;-77
2023/05/26 05:11:35;;;;;;;26.33;8.43;;;7.00;99.90;;;;;;5017620;28;20124;-77
2023/05/26 05:14:01;;;;;;;30.85;8.02;;;7.10;99.90;;;;;;5015726;28;20598;-76
2023/05/26 05:16:30;;;;;;;28.50;8.68;;;7.20;99.90;;;;;;5032424;28;20080;-78
2023/05/26 05:18:56;;;;;;;26.13;7.07;;;7.30;99.90;;;;;;5032347;28;20064;-77
2023/05/26 05:21:21;;;;;;;27.75;7.85;;;7.40;99.90;;;;;;5017540;28;20504;-77
2023/05/26 05:23:47;;;;;;;28.73;7.82;;;7.50;99.90;;;;;;5035448;28;20043;-78
2023/05/26 05:26:13;;;;;;;29.67;7.93;;;7.60;99.90;;;;;;5017880;28;20144;-78
2023/05/26 05:28:39;;;;;;;34.83;8.93;;;7.70;99.90;;;;;;5051283;28;20037;-78
2023/05/26 05:31:05;;;;;;;24.58;7.38;;;7.80;99.90;;;;;;5051633;28;20499;-77
2023/05/26 05:33:30;;;;;;;30.60;8.40;;;7.90;99.90;;;;;;5031290;28;20044;-78
2023/05/26 05:35:59;;;;;;;24.98;8.23;;;8.10;99.90;;;;;;5015687;28;20053;-76
2023/05/26 05:38:25;;;;;;;26.65;8.52;;;8.10;99.90;;;;;;5031741;28;21435;-77
2023/05/26 05:40:51;;;;;;;26.35;8.35;;;8.20;99.90;;;;;;5016944;28;20037;-78
2023/05/26 05:43:17;;;;;;;25.85;7.90;;;8.30;99.90;;;;;;5001799;28;20028;-78
2023/05/26 05:45:43;;;;;;;27.80;7.60;;;8.50;99.90;;;;;;5030609;28;20102;-79
2023/05/26 05:48:08;;;;;;;27.73;7.63;;;8.50;99.90;;;;;;5016993;28;20123;-78
2023/05/26 05:50:37;;;;;;;27.10;7.07;;;8.50;99.90;;;;;;5045933;28;20075;-78
2023/05/26 05:53:03;;;;;;;19.65;7.18;;;8.70;99.90;;;;;;5046513;28;20055;-79
2023/05/26 05:55:30;;;;;;;30.08;8.07;;;8.70;99.90;;;;;;5046015;28;20072;-79
2023/05/26 05:57:56;;;;;;;23.80;7.70;;;8.80;99.90;;;;;;4999764;28;20059;-80
2023/05/26 06:00:22;;;;;;;27.73;7.65;;;8.90;99.90;;;;;;5029234;28;20040;-79
2023/05/26 06:02:48;;;;;;;29.20;7.40;;;9.00;99.90;;;;;;5032329;28;20041;-79
2023/05/26 06:05:14;;;;;;;25.83;7.60;;;9.10;99.90;;;;;;5030111;28;20098;-77
2023/05/26 06:07:40;;;;;;;24.83;7.30;;;9.20;99.90;;;;;;5044301;28;20688;-79
2023/05/26 06:10:09;;;;;;;30.38;7.78;;;9.30;99.90;;;;;;5028538;28;20463;-76
2023/05/26 06:12:35;;;;;;;25.77;7.68;;;9.40;99.90;;;;;;5040375;28;20071;-78
2023/05/26 06:15:01;;;;;;;26.85;7.65;;;9.50;99.90;;;;;;5028861;28;20128;-77
2023/05/26 06:17:27;;;;;;;29.10;7.97;;;9.60;99.90;;;;;;5030845;28;20106;-80
2023/05/26 06:19:52;;;;;;;32.33;7.43;;;9.60;99.90;;;;;;5013031;28;20048;-80
2023/05/26 06:22:18;;;;;;;27.83;6.95;;;9.80;99.90;;;;;;5014189;28;20571;-79
2023/05/26 06:24:44;;;;;;;27.13;7.78;;;9.80;99.90;;;;;;5018011;28;20086;-81
2023/05/26 06:27:10;;;;;;;28.05;8.40;;;9.90;99.90;;;;;;5032358;28;20410;-79
2023/05/26 06:29:36;;;;;;;24.40;7.50;;;9.90;99.90;;;;;;5032729;28;20391;-78
2023/05/26 06:32:02;;;;;;;28.33;6.78;;;10.00;99.90;;;;;;5047900;28;20098;-79
2023/05/26 06:34:28;;;;;;;28.48;7.13;;;10.00;99.90;;;;;;5012874;28;20048;-80
2023/05/26 06:36:56;;;;;;;27.70;8.13;;;10.10;99.90;;;;;;5018333;28;20611;-79
2023/05/26 06:39:24;;;;;;;23.27;6.70;;;10.20;99.90;;;;;;5028491;28;21466;-80
2023/05/26 06:41:50;;;;;;;30.45;8.02;;;10.20;99.90;;;;;;5050385;28;20044;-78
2023/05/26 06:44:16;;;;;;;26.52;7.93;;;10.30;99.90;;;;;;5031385;28;20052;-78
2023/05/26 06:46:42;;;;;;;28.10;8.10;;;10.30;99.90;;;;;;5048856;28;20132;-79
2023/05/26 06:49:08;;;;;;;32.92;7.80;;;10.40;99.90;;;;;;5048797;28;20040;-76
2023/05/26 06:51:39;;;;;;;21.75;6.55;;;10.50;99.90;;;;;;5031979;28;20044;-80
2023/05/26 06:54:06;;;;;;;29.73;7.82;;;10.40;99.90;;;;;;5048166;28;20044;-76
2023/05/26 06:56:32;;;;;;;27.90;7.68;;;10.50;99.90;;;;;;5032948;28;20040;-80
2023/05/26 06:58:58;;;;;;;27.90;7.88;;;10.50;99.90;;;;;;5033270;28;20051;-77
2023/05/26 07:01:29;;;;;;;28.15;7.53;;;10.70;99.90;;;;;;5028946;28;20041;-78
2023/05/26 07:04:01;;;;;;;27.80;7.28;;;10.80;99.90;;;;;;5013909;28;20048;-78
2023/05/26 07:06:27;;;;;;;22.27;6.55;;;11.00;99.90;;;;;;5005507;28;20048;-79
2023/05/26 07:08:56;;;;;;;22.50;7.03;;;11.10;99.90;;;;;;5028758;28;20493;-79
2023/05/26 07:11:22;;;;;;;22.83;6.43;;;11.30;99.90;;;;;;5029929;28;20052;-76
2023/05/26 07:13:50;;;;;;;24.65;6.60;;;11.40;99.90;;;;;;5012440;28;20048;-78
2023/05/26 07:16:16;;;;;;;22.13;5.93;;;11.40;99.90;;;;;;5029885;28;20662;-79
2023/05/26 07:18:45;;;;;;;21.08;6.20;;;11.50;99.90;;;;;;5045198;28;20048;-79
2023/05/26 07:21:22;;;;;;;20.83;6.53;;;11.50;99.90;;;;;;5033452;28;20351;-77
2023/05/26 07:23:48;;;;;;;21.08;6.28;;;11.70;99.90;;;;;;5014955;28;20044;-77
2023/05/26 07:26:14;;;;;;;20.60;5.68;;;11.90;99.90;;;;;;5026909;28;20048;-78
2023/05/26 07:28:41;;;;;;;19.67;6.15;;;12.00;99.90;;;;;;5027935;28;20078;-80
2023/05/26 07:31:07;;;;;;;21.05;5.90;;;12.20;99.90;;;;;;5029184;28;20454;-79
2023/05/26 07:33:36;;;;;;;21.73;6.35;;;12.30;99.90;;;;;;5044733;28;20045;-81
2023/05/26 07:36:02;;;;;;;22.60;6.03;;;12.30;99.90;;;;;;5030630;28;20048;-81
2023/05/26 07:38:28;;;;;;;20.90;5.80;;;12.30;99.90;;;;;;5044942;28;20048;-81
2023/05/26 07:40:54;;;;;;;18.85;5.53;;;12.40;99.90;;;;;;5029800;28;20111;-80
2023/05/26 07:43:20;;;;;;;21.83;5.70;;;12.50;99.90;;;;;;5013799;28;20045;-76
2023/05/26 07:45:46;;;;;;;23.65;6.22;;;12.60;99.90;;;;;;5028842;28;20788;-75
2023/05/26 07:48:14;;;;;;;18.40;4.80;;;12.70;99.90;;;;;;5028553;28;20058;-76
2023/05/26 07:50:41;;;;;;;21.27;5.93;;;12.90;99.90;;;;;;5029401;28;20252;-76
2023/05/26 07:53:06;;;;;;;19.15;5.10;;;13.00;99.90;;;;;;5047214;28;20059;-76
2023/05/26 07:55:32;;;;;;;19.42;5.53;;;13.10;99.90;;;;;;5015166;28;20404;-76
2023/05/26 07:57:58;;;;;;;19.80;5.57;;;13.30;99.90;;;;;;5045747;28;20056;-75
2023/05/26 08:00:27;;;;;;;15.63;4.88;;;13.30;99.90;;;;;;5014584;28;20049;-75
2023/05/26 08:02:53;;;;;;;17.27;4.97;;;13.40;99.90;;;;;;5047037;28;20049;-75
2023/05/26 08:05:24;;;;;;;17.52;4.60;;;13.50;99.90;;;;;;5029310;28;20037;-75
2023/05/26 08:07:53;;;;;;;14.75;4.57;;;13.50;99.90;;;;;;5031069;28;20064;-76
2023/05/26 08:10:19;;;;;;;17.23;4.18;;;13.50;99.90;;;;;;5029505;28;20285;-76
2023/05/26 08:12:44;;;;;;;17.67;5.20;;;13.50;99.90;;;;;;5046262;28;20106;-75
2023/05/26 08:15:15;;;;;;;21.10;4.68;;;13.60;99.80;;;;;;5014447;28;20129;-75
2023/05/26 08:17:42;;;;;;;15.70;4.90;;;13.60;99.90;;;;;;5046035;28;20100;-76
2023/05/26 08:20:09;;;;;;;15.05;4.20;;;13.70;99.40;;;;;;5047940;28;20511;-75
2023/05/26 08:22:36;;;;;;;16.42;4.65;;;13.80;99.50;;;;;;5031436;28;20160;-76
2023/05/26 08:25:02;;;;;;;18.42;4.57;;;13.90;97.60;;;;;;5019499;28;20044;-76
2023/05/26 08:27:28;;;;;;;14.07;4.45;;;13.90;97.50;;;;;;5051043;28;20496;-75
2023/05/26 08:29:57;;;;;;;16.98;4.80;;;14.00;98.50;;;;;;5017802;28;20937;-74
2023/05/26 08:32:25;;;;;;;18.05;4.57;;;14.10;97.40;;;;;;5050098;28;20175;-76
2023/05/26 08:34:51;;;;;;;18.88;5.88;;;14.30;96.90;;;;;;5051850;28;20048;-75
2023/05/26 08:37:18;;;;;;;17.08;5.57;;;14.40;96.50;;;;;;5051619;28;20041;-75
2023/05/26 08:39:44;;;;;;;15.82;4.35;;;14.30;94.50;;;;;;5050045;28;20040;-76
2023/05/26 08:42:17;;;;;;;17.13;5.10;;;14.30;94.80;;;;;;5049617;28;20388;-76
2023/05/26 08:44:44;;;;;;;16.88;4.55;;;14.40;94.50;;;;;;5034150;28;21418;-75
2023/05/26 08:47:11;;;;;;;13.98;4.32;;;14.60;94.10;;;;;;5033997;28;20076;-75
2023/05/26 08:49:45;;;;;;;17.23;4.32;;;14.60;93.30;;;;;;5034200;28;20807;-76
2023/05/26 08:52:13;;;;;;;14.38;4.40;;;14.60;91.40;;;;;;5035884;28;20507;-75
2023/05/26 08:54:43;;;;;;;13.00;4.32;;;14.70;93.20;;;;;;5050902;28;20040;-76
2023/05/26 08:57:10;;;;;;;14.55;4.95;;;14.70;91.50;;;;;;5035410;28;20052;-76
2023/05/26 08:59:37;;;;;;;16.05;3.75;;;14.60;91.40;;;;;;5034357;28;20051;-79
2023/05/26 09:02:03;;;;;;;15.57;4.32;;;14.60;91.30;;;;;;5032435;28;20056;-77
2023/05/26 09:04:30;;;;;;;21.80;5.15;;;14.70;91.10;;;;;;5050543;28;20048;-77
2023/05/26 09:06:57;;;;;;;13.60;4.22;;;14.70;92.50;;;;;;5049798;28;20286;-75
2023/05/26 09:09:23;;;;;;;15.32;4.45;;;14.80;91.30;;;;;;5049988;28;20059;-77
2023/05/26 09:11:50;;;;;;;13.73;3.80;;;15.00;91.70;;;;;;5050866;28;20044;-75
2023/05/26 09:14:17;;;;;;;13.68;3.85;;;15.00;90.50;;;;;;5048897;28;20083;-74
2023/05/26 09:16:43;;;;;;;14.48;4.10;;;15.10;89.30;;;;;;5050960;28;20169;-76
2023/05/26 09:19:19;;;;;;;11.45;3.58;;;15.10;89.30;;;;;;5000138;28;20082;-75
2023/05/26 09:21:54;;;;;;;13.43;3.97;;;15.20;88.20;;;;;;5033389;28;21430;-76
2023/05/26 09:24:23;;;;;;;17.13;4.40;;;15.30;87.80;;;;;;5049155;28;20056;-76
2023/05/26 09:26:51;;;;;;;18.70;4.30;;;15.30;88.00;;;;;;5046890;28;20140;-77
2023/05/26 09:29:17;;;;;;;14.40;4.20;;;15.40;89.60;;;;;;5031483;28;20051;-78
2023/05/26 09:31:48;;;;;;;14.10;4.05;;;15.40;85.60;;;;;;5014303;28;20504;-75
2023/05/26 09:34:23;;;;;;;15.60;4.28;;;15.40;89.50;;;;;;5048256;28;20573;-76
2023/05/26 09:36:51;;;;;;;12.60;3.78;;;15.70;90.10;;;;;;5032958;28;20048;-74
2023/05/26 09:39:30;;;;;;;13.43;3.47;;;15.80;86.30;;;;;;5032902;28;20515;-75
2023/05/26 09:41:56;;;;;;;13.77;4.18;;;15.90;85.90;;;;;;5034402;28;20058;-76
2023/05/26 09:44:22;;;;;;;15.00;4.47;;;15.90;84.30;;;;;;5013757;28;21018;-76
2023/05/26 09:46:56;;;;;;;14.38;4.43;;;15.80;85.20;;;;;;5032398;28;20048;-75
2023/05/26 09:49:25;;;;;;;13.65;3.95;;;15.70;84.90;;;;;;5048463;28;20522;-76
2023/05/26 09:51:51;;;;;;;11.77;4.18;;;15.80;83.60;;;;;;5048542;28;20052;-76
2023/05/26 09:54:17;;;;;;;13.70;4.50;;;15.90;83.10;;;;;;5048642;28;20053;-75
2023/05/26 09:57:04;;;;;;;16.30;4.63;;;15.90;82.70;;;;;;5050205;28;20349;-76
2023/05/26 09:59:38;;;;;;;16.42;4.97;;;16.00;84.10;;;;;;5029787;28;20044;-75
2023/05/26 10:02:13;;;;;;;12.85;3.90;;;16.20;83.30;;;;;;5033559;28;20071;-76
2023/05/26 10:04:41;;;;;;;10.32;4.00;;;16.10;81.20;;;;;;5030632;28;20072;-77
2023/05/26 10:07:07;;;;;;;14.02;4.05;;;16.00;80.70;;;;;;5031872;28;20036;-76
2023/05/26 10:09:40;;;;;;;14.60;4.22;;;16.00;82.70;;;;;;5048957;28;20048;-75
2023/05/26 10:12:11;;;;;;;15.82;5.00;;;16.10;82.80;;;;;;5030598;28;20048;-78
2023/05/26 10:14:37;;;;;;;12.38;3.85;;;16.20;81.30;;;;;;5032309;28;20046;-74
2023/05/26 10:17:04;;;;;;;13.32;4.15;;;16.20;80.90;;;;;;5031196;28;20147;-75
2023/05/26 10:19:30;;;;;;;13.80;4.60;;;16.30;81.70;;;;;;5005028;28;20080;-75
2023/05/26 10:22:06;;;;;;;12.18;4.13;;;16.30;79.70;;;;;;5029675;28;20071;-74
2023/05/26 10:24:37;;;;;;;13.05;4.30;;;16.20;80.30;;;;;;5024407;28;20405;-74
2023/05/26 10:27:41;;;;;;;11.80;3.78;;;16.40;80.60;;;;;;5029186;28;20060;-75
2023/05/26 10:30:10;;;;;;;17.25;3.97;;;16.40;80.90;;;;;;5044873;28;20707;-75
2023/05/26 10:33:06;;;;;;;13.38;3.83;;;16.50;81.80;;;;;;5014334;28;20048;-72
2023/05/26 10:35:36;;;;;;;14.13;4.03;;;16.50;78.70;;;;;;5046440;28;20137;-74
2023/05/26 10:38:01;;;;;;;14.67;4.70;;;16.50;79.30;;;;;;5013860;28;20040;-72
2023/05/26 10:40:33;;;;;;;16.15;4.25;;;16.60;79.20;;;;;;5029547;28;20519;-74
2023/05/26 10:43:01;;;;;;;14.32;3.85;;;16.70;81.20;;;;;;5028517;28;20589;-74
2023/05/26 10:45:41;;;;;;;12.13;3.30;;;16.70;77.10;;;;;;5031566;28;20113;-71
2023/05/26 10:48:10;;;;;;;12.57;4.03;;;16.70;78.50;;;;;;5030207;28;20485;-73
2023/05/26 10:50:58;;;;;;;13.40;4.20;;;16.70;77.80;;;;;;5032148;28;20407;-73
2023/05/26 10:53:31;;;;;;;13.20;4.25;;;16.60;78.30;;;;;;5040222;28;20053;-71
2023/05/26 10:55:59;;;;;;;14.13;3.85;;;16.60;78.00;;;;;;5046905;28;20048;-72
2023/05/26 10:58:28;;;;;;;12.45;3.45;;;16.60;79.00;;;;;;5014693;28;20056;-72
2023/05/26 11:00:57;;;;;;;12.82;3.75;;;16.60;79.00;;;;;;5029220;28;20040;-72
2023/05/26 11:03:35;;;;;;;12.07;3.78;;;16.70;77.60;;;;;;5031201;28;20044;-72
2023/05/26 11:06:04;;;;;;;14.85;3.85;;;16.70;76.50;;;;;;5031488;28;20611;-73
2023/05/26 11:08:49;;;;;;;13.85;3.95;;;16.60;78.50;;;;;;5031588;28;20074;-73
2023/05/26 11:11:29;;;;;;;13.73;4.45;;;16.80;79.00;;;;;;5046876;28;20306;-73
2023/05/26 11:14:12;;;;;;;15.82;5.18;;;17.00;76.20;;;;;;5031020;28;20504;-74
2023/05/26 11:16:40;;;;;;;14.23;4.72;;;16.90;76.20;;;;;;5045602;28;20267;-74
2023/05/26 11:19:07;;;;;;;13.25;3.85;;;16.80;78.00;;;;;;5030555;28;20090;-75
2023/05/26 11:21:35;;;;;;;12.40;3.70;;;16.80;73.20;;;;;;5029390;28;20047;-71
2023/05/26 11:24:02;;;;;;;13.57;4.55;;;16.70;72.30;;;;;;5045701;28;20053;-73
2023/05/26 11:26:30;;;;;;;14.80;4.25;;;16.60;75.20;;;;;;5046345;28;20053;-73
2023/05/26 11:28:58;;;;;;;14.80;4.15;;;16.70;77.30;;;;;;5047320;28;20119;-73
2023/05/26 11:31:27;;;;;;;14.48;4.47;;;16.80;75.60;;;;;;5046825;28;20063;-73
2023/05/26 11:33:55;;;;;;;14.57;4.07;;;16.80;74.90;;;;;;5031164;28;20055;-72
2023/05/26 11:36:21;;;;;;;13.90;4.05;;;16.90;75.10;;;;;;5044031;28;20048;-74
2023/05/26 11:38:54;;;;;;;17.15;3.90;;;17.00;75.30;;;;;;5048623;28;20403;-75
2023/05/26 11:41:26;;;;;;;14.70;3.97;;;16.90;75.80;;;;;;5029914;28;20044;-73
2023/05/26 11:43:53;;;;;;;13.10;4.07;;;17.00;73.90;;;;;;5031670;28;20508;-74
2023/05/26 11:46:20;;;;;;;13.95;3.78;;;17.10;75.50;;;;;;5042956;28;20590;-71
2023/05/26 11:48:46;;;;;;;12.55;3.92;;;17.20;74.80;;;;;;5048117;28;20119;-72
2023/05/26 11:51:19;;;;;;;16.63;4.32;;;17.00;72.60;;;;;;5014606;28;20135;-73
2023/05/26 11:53:47;;;;;;;14.73;4.15;;;16.80;72.80;;;;;;5047587;28;20461;-71
2023/05/26 11:56:16;;;;;;;12.10;3.65;;;16.90;73.80;;;;;;5029476;28;20036;-73
2023/05/26 11:58:46;;;;;;;13.38;4.18;;;16.90;76.20;;;;;;5032706;28;20636;-73
2023/05/26 12:01:12;;;;;;;15.18;4.65;;;17.10;75.10;;;;;;5033809;28;20080;-73
2023/05/26 12:03:45;;;;;;;15.77;4.63;;;17.20;75.00;;;;;;5052346;28;20045;-73
2023/05/26 12:06:25;;;;;;;14.75;4.38;;;17.30;74.60;;;;;;5049659;28;20041;-74
2023/05/26 12:08:55;;;;;;;11.70;3.67;;;17.30;75.10;;;;;;5049397;28;20090;-74
2023/05/26 12:11:42;;;;;;;15.13;4.13;;;17.40;75.10;;;;;;5035814;28;20399;-74
2023/05/26 12:14:12;;;;;;;14.90;4.22;;;17.50;74.60;;;;;;5039879;28;20071;-73
2023/05/26 12:16:51;;;;;;;14.45;4.65;;;17.50;74.00;;;;;;5019455;28;20044;-73
2023/05/26 12:19:18;;;;;;;16.45;5.07;;;17.40;73.60;;;;;;5035688;28;20070;-74
2023/05/26 12:21:48;;;;;;;18.27;5.03;;;17.30;74.50;;;;;;5050457;28;20051;-73
2023/05/26 12:24:32;;;;;;;16.05;4.53;;;17.30;75.00;;;;;;5050101;28;20096;-74
2023/05/26 12:27:07;;;;;;;14.45;4.60;;;17.30;75.00;;;;;;5032800;28;20069;-73
2023/05/26 12:29:43;;;;;;;14.48;4.65;;;17.30;74.80;;;;;;5031181;28;20135;-75
2023/05/26 12:32:10;;;;;;;14.02;4.18;;;17.30;74.30;;;;;;5050066;28;20052;-74
2023/05/26 12:34:38;;;;;;;13.27;4.63;;;17.40;76.60;;;;;;5031540;28;20036;-73
2023/05/26 12:37:04;;;;;;;13.85;4.50;;;17.50;74.20;;;;;;5049844;28;20157;-74
2023/05/26 12:39:31;;;;;;;15.38;5.00;;;17.40;74.40;;;;;;5014663;28;20764;-73
2023/05/26 12:42:01;;;;;;;16.27;4.65;;;17.30;74.50;;;;;;5029459;28;20112;-73
2023/05/26 12:44:27;;;;;;;13.40;4.47;;;17.40;75.60;;;;;;5047020;28;20455;-73
2023/05/26 12:46:55;;;;;;;12.18;4.50;;;17.40;75.60;;;;;;5032789;28;20051;-73
2023/05/26 12:49:21;;;;;;;14.20;5.20;;;17.50;73.60;;;;;;5050201;28;20463;-73